Time;durP1;ratioP1;P1;durP2;ratioP2;P2;SDS_P1;SDS_P2;PMS_P1;PMS_P2;Temp;Humidity;BMP_temperature;BMP_pressure;BME280_temperature;BME280_humidity;BME280_pressure;Samples;Min_cycle;Max_cycle;Signal;HPM_P1;HPM_P2
2021/09/04 00:00:55;;;;;;;9.32;5.60;;;;;20.90;101842.00;;;;5009077;28;20197;-79
2021/09/04 00:03:24;;;;;;;11.75;6.85;;;;;20.90;101842.00;;;;5008316;28;20220;-78
2021/09/04 00:05:51;;;;;;;10.32;6.50;;;;;20.90;101838.00;;;;5007611;28;20208;-77
2021/09/04 00:08:18;;;;;;;9.63;6.72;;;;;20.90;101837.00;;;;5004220;28;20212;-79
2021/09/04 00:10:45;;;;;;;12.15;6.85;;;;;20.80;101833.00;;;;5008150;28;20200;-79
2021/09/04 00:13:13;;;;;;;9.95;7.07;;;;;20.80;101833.00;;;;5009002;28;20201;-78
2021/09/04 00:15:40;;;;;;;12.45;7.72;;;;;20.80;101827.00;;;;5008484;28;20235;-79
2021/09/04 00:18:07;;;;;;;10.07;6.35;;;;;20.80;101834.00;;;;5007514;28;20220;-79
2021/09/04 00:20:36;;;;;;;9.55;6.38;;;;;20.70;101833.00;;;;5005785;28;20300;-79
2021/09/04 00:23:03;;;;;;;9.70;6.80;;;;;20.70;101837.00;;;;5007488;28;20594;-79
2021/09/04 00:25:30;;;;;;;7.75;6.30;;;;;20.70;101840.00;;;;5007639;28;20227;-78
2021/09/04 00:27:57;;;;;;;9.95;6.57;;;;;20.60;101836.00;;;;5007593;28;20230;-78
2021/09/04 00:30:25;;;;;;;8.98;5.93;;;;;20.60;101836.00;;;;5004273;28;20213;-79
2021/09/04 00:32:52;;;;;;;7.90;6.03;;;;;20.60;101838.00;;;;5007717;28;20196;-77
2021/09/04 00:35:19;;;;;;;9.70;6.45;;;;;20.60;101841.00;;;;5002156;28;20192;-78
2021/09/04 00:37:48;;;;;;;9.63;6.45;;;;;20.60;101831.00;;;;5006802;28;20213;-77
2021/09/04 00:40:15;;;;;;;7.97;5.97;;;;;20.60;101833.00;;;;5008158;28;20212;-79
2021/09/04 00:42:42;;;;;;;12.60;6.53;;;;;20.50;101841.00;;;;5007636;28;20204;-78
2021/09/04 00:45:10;;;;;;;9.48;6.22;;;;;20.50;101836.00;;;;5008031;28;20215;-78
2021/09/04 00:47:51;;;;;;;10.75;7.10;;;;;20.50;101839.00;;;;5007403;28;20208;-79
2021/09/04 00:50:18;;;;;;;12.60;6.05;;;;;20.50;101835.00;;;;5007400;28;20197;-78
2021/09/04 00:52:47;;;;;;;12.88;6.40;;;;;20.40;101836.00;;;;5006723;28;20474;-78
2021/09/04 00:55:14;;;;;;;11.55;5.97;;;;;20.40;101827.00;;;;5008081;28;20200;-79
2021/09/04 00:57:41;;;;;;;13.55;6.88;;;;;20.40;101828.00;;;;5006934;28;20204;-79
2021/09/04 01:00:10;;;;;;;11.75;5.90;;;;;20.40;101822.00;;;;5006759;28;20211;-78
2021/09/04 01:02:37;;;;;;;11.07;7.10;;;;;20.30;101822.00;;;;5006631;28;20201;-80
2021/09/04 01:05:05;;;;;;;9.52;6.53;;;;;20.30;101820.00;;;;5006868;28;20578;-78
2021/09/04 01:07:32;;;;;;;9.80;6.35;;;;;20.30;101823.00;;;;5007576;28;20252;-77
2021/09/04 01:10:02;;;;;;;12.13;6.22;;;;;20.30;101824.00;;;;5008542;28;20229;-79
2021/09/04 01:12:31;;;;;;;14.43;6.78;;;;;20.30;101824.00;;;;5010406;28;20686;-79
2021/09/04 01:14:58;;;;;;;9.32;6.03;;;;;20.20;101821.00;;;;5010915;28;20267;-79
2021/09/04 01:17:26;;;;;;;9.30;5.75;;;;;20.20;101826.00;;;;5011195;28;20204;-78
2021/09/04 01:19:53;;;;;;;9.18;5.82;;;;;20.20;101821.00;;;;5010264;28;20201;-78
2021/09/04 01:22:21;;;;;;;9.43;6.10;;;;;20.20;101820.00;;;;5010100;28;20225;-79
2021/09/04 01:24:50;;;;;;;10.45;6.47;;;;;20.20;101820.00;;;;4995238;28;20231;-78
2021/09/04 01:27:19;;;;;;;8.30;5.30;;;;;20.20;101823.00;;;;5011984;28;20200;-78
2021/09/04 01:29:47;;;;;;;9.75;6.18;;;;;20.20;101808.00;;;;5008456;28;20205;-78
2021/09/04 01:32:14;;;;;;;8.93;6.13;;;;;20.10;101810.00;;;;5010825;28;20200;-78
2021/09/04 01:34:41;;;;;;;9.10;5.70;;;;;20.10;101813.00;;;;5011116;28;20197;-79
2021/09/04 01:37:08;;;;;;;10.38;7.05;;;;;20.10;101815.00;;;;5011145;28;20217;-78
2021/09/04 01:39:36;;;;;;;9.75;6.15;;;;;20.10;101814.00;;;;5011073;28;20197;-79
2021/09/04 01:42:03;;;;;;;10.43;6.18;;;;;20.10;101805.00;;;;5010482;28;20204;-79
2021/09/04 01:44:31;;;;;;;10.82;6.50;;;;;20.00;101811.00;;;;5010672;28;20702;-78
2021/09/04 01:46:59;;;;;;;9.57;6.10;;;;;20.00;101812.00;;;;5010616;28;20205;-79
2021/09/04 01:49:26;;;;;;;13.40;7.20;;;;;20.00;101806.00;;;;5011210;28;20208;-78
2021/09/04 01:51:53;;;;;;;12.57;6.35;;;;;20.00;101806.00;;;;5010558;28;20200;-78
2021/09/04 01:54:20;;;;;;;12.05;6.20;;;;;19.90;101810.00;;;;5010895;28;20200;-78
2021/09/04 01:56:48;;;;;;;9.43;6.18;;;;;19.90;101807.00;;;;5010691;28;20209;-78
2021/09/04 01:59:15;;;;;;;11.27;6.07;;;;;19.90;101805.00;;;;5010902;28;20197;-78
2021/09/04 02:01:43;;;;;;;11.27;6.60;;;;;19.90;101801.00;;;;5009778;28;20197;-79
2021/09/04 02:04:11;;;;;;;9.13;5.38;;;;;19.90;101799.00;;;;5010586;28;20224;-79
2021/09/04 02:06:38;;;;;;;9.60;6.70;;;;;19.90;101801.00;;;;5010633;28;20193;-79
2021/09/04 02:09:05;;;;;;;10.57;5.63;;;;;19.90;101791.00;;;;5009956;28;20208;-78
2021/09/04 02:11:32;;;;;;;8.27;5.40;;;;;19.80;101791.00;;;;5010700;28;20201;-79
2021/09/04 02:14:00;;;;;;;8.82;5.88;;;;;19.80;101798.00;;;;5010445;28;20228;-78
2021/09/04 02:16:27;;;;;;;10.15;6.03;;;;;19.80;101799.00;;;;5009392;28;20585;-78
2021/09/04 02:18:55;;;;;;;11.32;6.20;;;;;19.80;101793.00;;;;5008849;28;20229;-79
2021/09/04 02:21:23;;;;;;;9.30;5.68;;;;;19.80;101784.00;;;;5008465;28;20217;-78
2021/09/04 02:23:50;;;;;;;8.07;5.45;;;;;19.80;101792.00;;;;5009688;28;20698;-78
2021/09/04 02:26:17;;;;;;;8.13;5.63;;;;;19.80;101785.00;;;;5008043;28;20208;-79
2021/09/04 02:28:44;;;;;;;9.25;5.13;;;;;19.70;101787.00;;;;5008853;28;20219;-79
2021/09/04 02:31:12;;;;;;;8.65;5.85;;;;;19.70;101787.00;;;;5009621;28;20193;-78
2021/09/04 02:33:39;;;;;;;7.13;5.03;;;;;19.70;101779.00;;;;5009609;28;20216;-78
2021/09/04 02:36:07;;;;;;;8.43;5.43;;;;;19.70;101775.00;;;;5008737;28;20197;-78
2021/09/04 02:38:34;;;;;;;9.63;5.90;;;;;19.70;101778.00;;;;5005321;28;20213;-78
2021/09/04 02:41:02;;;;;;;10.15;5.35;;;;;19.70;101774.00;;;;5008586;28;20211;-79
2021/09/04 02:43:29;;;;;;;9.43;5.57;;;;;19.60;101771.00;;;;5005894;28;20212;-78
2021/09/04 02:45:56;;;;;;;12.25;6.57;;;;;19.60;101769.00;;;;5009810;28;20200;-79
2021/09/04 02:48:23;;;;;;;8.95;5.22;;;;;19.60;101768.00;;;;5009808;28;20243;-78
2021/09/04 02:50:51;;;;;;;11.90;5.90;;;;;19.60;101772.00;;;;5009209;28;20654;-79
2021/09/04 02:53:19;;;;;;;12.95;5.53;;;;;19.50;101768.00;;;;5009028;28;20193;-78
2021/09/04 02:55:46;;;;;;;8.75;5.57;;;;;19.50;101772.00;;;;5009192;28;20205;-79
2021/09/04 02:58:14;;;;;;;8.75;5.63;;;;;19.50;101771.00;;;;5009944;28;20248;-78
2021/09/04 03:00:41;;;;;;;9.50;5.38;;;;;19.50;101777.00;;;;5009292;28;20201;-78
2021/09/04 03:03:08;;;;;;;10.73;5.88;;;;;19.50;101773.00;;;;5008863;28;20201;-78
2021/09/04 03:05:36;;;;;;;9.60;5.75;;;;;19.50;101777.00;;;;5008415;28;20232;-77
2021/09/04 03:08:03;;;;;;;7.32;5.28;;;;;19.40;101774.00;;;;5009645;28;20201;-78
2021/09/04 03:10:32;;;;;;;11.52;6.40;;;;;19.40;101775.00;;;;5009917;28;20201;-77
2021/09/04 03:12:59;;;;;;;8.93;5.78;;;;;19.40;101774.00;;;;5009117;28;20201;-77
2021/09/04 03:15:26;;;;;;;12.55;5.85;;;;;19.40;101772.00;;;;5009152;28;20207;-77
2021/09/04 03:17:54;;;;;;;8.20;5.85;;;;;19.40;101778.00;;;;5008704;28;20609;-77
2021/09/04 03:20:21;;;;;;;9.38;6.75;;;;;19.40;101780.00;;;;5009332;28;20591;-77
2021/09/04 03:22:48;;;;;;;8.77;6.15;;;;;19.40;101777.00;;;;5008289;28;20228;-78
2021/09/04 03:25:15;;;;;;;10.02;5.70;;;;;19.40;101783.00;;;;5009237;28;20235;-77
2021/09/04 03:27:44;;;;;;;10.20;6.32;;;;;19.40;101780.00;;;;5007629;28;20213;-77
2021/09/04 03:30:12;;;;;;;11.10;6.00;;;;;19.40;101784.00;;;;5008737;28;20201;-77
2021/09/04 03:32:40;;;;;;;10.23;6.15;;;;;19.40;101781.00;;;;5007730;28;20201;-76
2021/09/04 03:35:07;;;;;;;10.77;6.15;;;;;19.40;101782.00;;;;5004239;28;20201;-77
2021/09/04 03:37:35;;;;;;;10.10;5.78;;;;;19.40;101786.00;;;;5008213;28;20217;-78
2021/09/04 03:40:02;;;;;;;9.70;5.75;;;;;19.40;101781.00;;;;5008070;28;20216;-77
2021/09/04 03:42:29;;;;;;;11.35;6.90;;;;;19.40;101784.00;;;;5007753;28;20196;-77
2021/09/04 03:44:58;;;;;;;9.60;5.85;;;;;19.40;101781.00;;;;5009266;28;20228;-78
2021/09/04 03:47:26;;;;;;;10.57;5.88;;;;;19.40;101778.00;;;;5008856;28;20197;-78
2021/09/04 03:49:54;;;;;;;10.13;6.20;;;;;19.40;101776.00;;;;4999895;28;20560;-78
2021/09/04 03:52:21;;;;;;;11.57;7.50;;;;;19.50;101781.00;;;;5000515;28;20204;-78
2021/09/04 03:54:49;;;;;;;11.77;6.75;;;;;19.50;101791.00;;;;5008599;28;20211;-78
2021/09/04 03:57:16;;;;;;;11.20;6.30;;;;;19.50;101790.00;;;;5006397;28;20570;-79
2021/09/04 03:59:43;;;;;;;12.57;5.78;;;;;19.50;101783.00;;;;5008936;28;20204;-78
2021/09/04 04:02:12;;;;;;;12.45;6.75;;;;;19.50;101782.00;;;;5008113;28;20209;-79
2021/09/04 04:04:39;;;;;;;9.48;6.57;;;;;19.50;101784.00;;;;5008324;28;20290;-77
2021/09/04 04:07:06;;;;;;;10.10;6.65;;;;;19.50;101788.00;;;;5007962;28;20948;-79
2021/09/04 04:09:33;;;;;;;11.32;5.93;;;;;19.50;101785.00;;;;5008327;28;20608;-79
2021/09/04 04:12:00;;;;;;;8.50;5.90;;;;;19.50;101784.00;;;;5008031;28;20239;-79
2021/09/04 04:14:28;;;;;;;11.40;6.75;;;;;19.50;101779.00;;;;5008664;28;20219;-78
2021/09/04 04:16:55;;;;;;;9.60;6.18;;;;;19.50;101782.00;;;;5007541;28;20288;-79
2021/09/04 04:19:24;;;;;;;9.68;6.28;;;;;19.40;101779.00;;;;5008519;28;20236;-78
2021/09/04 04:21:51;;;;;;;9.82;5.03;;;;;19.40;101774.00;;;;5006529;28;20217;-79
2021/09/04 04:24:18;;;;;;;10.13;6.60;;;;;19.40;101788.00;;;;5007631;28;20240;-79
2021/09/04 04:26:47;;;;;;;10.65;6.18;;;;;19.40;101780.00;;;;4999190;28;20202;-78
2021/09/04 04:29:16;;;;;;;13.80;6.65;;;;;19.50;101788.00;;;;5002643;28;20200;-78
2021/09/04 04:31:43;;;;;;;10.85;7.07;;;;;19.50;101777.00;;;;5007714;28;20204;-78
2021/09/04 04:34:10;;;;;;;12.07;6.65;;;;;19.50;101783.00;;;;5008013;28;20204;-78
2021/09/04 04:36:39;;;;;;;9.68;5.93;;;;;19.40;101792.00;;;;5006977;28;20655;-79
2021/09/04 04:39:07;;;;;;;12.75;6.80;;;;;19.50;101794.00;;;;5008909;28;20197;-78
2021/09/04 04:41:34;;;;;;;11.98;5.85;;;;;19.50;101797.00;;;;5007836;28;20289;-79
2021/09/04 04:44:01;;;;;;;9.93;6.97;;;;;19.50;101791.00;;;;5007199;28;20208;-79
2021/09/04 04:46:28;;;;;;;10.27;6.72;;;;;19.50;101799.00;;;;5011382;28;20693;-78
2021/09/04 04:48:56;;;;;;;12.13;6.38;;;;;19.50;101799.00;;;;5011926;28;20192;-79
2021/09/04 04:51:23;;;;;;;12.38;6.57;;;;;19.60;101792.00;;;;5011384;28;20205;-78
2021/09/04 04:53:51;;;;;;;11.90;6.40;;;;;19.60;101798.00;;;;5011367;28;20851;-78
2021/09/04 04:56:19;;;;;;;10.63;5.88;;;;;19.60;101801.00;;;;5010581;28;20216;-78
2021/09/04 04:58:46;;;;;;;11.60;6.15;;;;;19.60;101799.00;;;;5011693;28;20670;-78
2021/09/04 05:01:13;;;;;;;9.95;6.03;;;;;19.60;101799.00;;;;5011660;28;20205;-78
2021/09/04 05:03:40;;;;;;;12.65;6.45;;;;;19.60;101801.00;;;;5011192;28;20208;-79
2021/09/04 05:06:09;;;;;;;11.75;6.57;;;;;19.70;101801.00;;;;5012096;28;20588;-78
2021/09/04 05:08:36;;;;;;;7.82;5.50;;;;;19.70;101801.00;;;;5010821;28;20204;-78
2021/09/04 05:11:04;;;;;;;9.07;6.07;;;;;19.60;101807.00;;;;5011926;28;20197;-78
2021/09/04 05:13:32;;;;;;;9.85;5.90;;;;;19.70;101807.00;;;;5011175;28;20200;-77
2021/09/04 05:15:59;;;;;;;9.50;5.95;;;;;19.70;101802.00;;;;5011686;28;20208;-79
2021/09/04 05:18:26;;;;;;;9.65;4.97;;;;;19.70;101812.00;;;;5007804;28;20591;-78
2021/09/04 05:20:53;;;;;;;10.10;5.78;;;;;19.70;101800.00;;;;5010950;28;20217;-78
2021/09/04 05:23:21;;;;;;;9.43;4.80;;;;;19.70;101805.00;;;;5009017;28;20196;-78
2021/09/04 05:25:49;;;;;;;10.38;5.97;;;;;19.70;101803.00;;;;5010799;28;20225;-77
2021/09/04 05:28:17;;;;;;;9.63;6.07;;;;;19.70;101798.00;;;;5011962;28;20208;-77
2021/09/04 05:30:45;;;;;;;11.23;6.72;;;;;19.80;101805.00;;;;5010846;28;20551;-77
2021/09/04 05:33:12;;;;;;;11.27;6.70;;;;;19.80;101812.00;;;;5011138;28;20223;-77
2021/09/04 05:35:39;;;;;;;8.95;5.15;;;;;19.80;101802.00;;;;5009145;28;20212;-76
2021/09/04 05:38:06;;;;;;;8.85;6.13;;;;;19.80;101801.00;;;;5008052;28;20201;-77
2021/09/04 05:40:34;;;;;;;11.27;5.85;;;;;19.80;101815.00;;;;5010578;28;20212;-77
2021/09/04 05:43:01;;;;;;;10.00;5.70;;;;;19.80;101807.00;;;;5010013;28;20212;-78
2021/09/04 05:45:29;;;;;;;8.23;5.50;;;;;19.80;101810.00;;;;5002277;28;20717;-78
2021/09/04 05:47:56;;;;;;;9.07;6.05;;;;;19.90;101818.00;;;;5008473;28;20200;-78
2021/09/04 05:50:24;;;;;;;10.02;5.70;;;;;19.90;101817.00;;;;5003411;28;20210;-78
2021/09/04 05:52:51;;;;;;;10.10;6.32;;;;;19.90;101813.00;;;;5004643;28;20202;-77
2021/09/04 05:55:18;;;;;;;8.10;5.53;;;;;19.90;101823.00;;;;5000418;28;20208;-77
2021/09/04 05:57:46;;;;;;;13.07;6.00;;;;;19.90;101816.00;;;;4998641;28;20223;-78
2021/09/04 06:00:14;;;;;;;9.38;6.50;;;;;19.90;101820.00;;;;5001775;28;20201;-77
2021/09/04 06:02:43;;;;;;;9.18;5.50;;;;;19.90;101811.00;;;;5000262;28;20196;-80
2021/09/04 06:05:11;;;;;;;8.38;6.15;;;;;19.90;101816.00;;;;4998569;28;20573;-78
2021/09/04 06:07:38;;;;;;;8.88;5.97;;;;;19.90;101811.00;;;;5001336;28;20553;-78
2021/09/04 06:10:07;;;;;;;10.18;6.75;;;;;19.90;101815.00;;;;5002284;28;20205;-78
2021/09/04 06:12:34;;;;;;;11.07;6.82;;;;;19.90;101828.00;;;;5004146;28;20209;-78
2021/09/04 06:15:01;;;;;;;10.95;6.22;;;;;19.90;101823.00;;;;5004562;28;20193;-78
2021/09/04 06:17:28;;;;;;;9.93;5.30;;;;;19.90;101828.00;;;;5001830;28;20695;-79
2021/09/04 06:19:57;;;;;;;8.07;5.18;;;;;19.90;101825.00;;;;5002702;28;20670;-79
2021/09/04 06:22:24;;;;;;;10.57;6.25;;;;;19.90;101822.00;;;;5004519;28;20228;-77
2021/09/04 06:24:51;;;;;;;8.43;5.88;;;;;19.90;101824.00;;;;5007842;28;20228;-78
2021/09/04 06:27:19;;;;;;;10.93;7.07;;;;;20.00;101820.00;;;;5010334;28;20216;-78
2021/09/04 06:29:46;;;;;;;8.98;5.60;;;;;20.00;101823.00;;;;5008382;28;20197;-78
2021/09/04 06:32:13;;;;;;;8.68;5.65;;;;;20.00;101830.00;;;;5010060;28;20209;-77
2021/09/04 06:34:41;;;;;;;14.25;6.15;;;;;20.00;101829.00;;;;5008902;28;20201;-78
2021/09/04 06:37:10;;;;;;;8.57;6.10;;;;;20.00;101827.00;;;;5009271;28;20270;-78
2021/09/04 06:39:37;;;;;;;7.60;5.18;;;;;20.10;101822.00;;;;5008945;28;20205;-77
2021/09/04 06:42:05;;;;;;;7.95;5.68;;;;;20.10;101825.00;;;;5008263;28;20562;-78
2021/09/04 06:44:32;;;;;;;7.07;4.82;;;;;20.10;101817.00;;;;5005270;28;20209;-78
2021/09/04 06:47:00;;;;;;;11.48;6.82;;;;;20.10;101824.00;;;;5008799;28;20674;-78
2021/09/04 06:49:27;;;;;;;10.02;6.07;;;;;20.10;101823.00;;;;4999016;28;20212;-77
2021/09/04 06:51:54;;;;;;;10.00;6.38;;;;;20.10;101824.00;;;;5007828;28;20645;-77
2021/09/04 06:54:24;;;;;;;10.40;6.55;;;;;20.10;101830.00;;;;5009147;28;20201;-78
2021/09/04 06:56:52;;;;;;;9.88;6.47;;;;;20.10;101833.00;;;;5007717;28;20229;-77
2021/09/04 06:59:19;;;;;;;9.10;6.40;;;;;20.10;101830.00;;;;5008581;28;20201;-78
2021/09/04 07:01:49;;;;;;;11.05;6.05;;;;;20.10;101842.00;;;;5007727;28;20200;-78
2021/09/04 07:04:16;;;;;;;10.25;5.45;;;;;20.10;101842.00;;;;5006585;28;20189;-78
2021/09/04 07:06:44;;;;;;;8.43;5.85;;;;;20.10;101841.00;;;;5009377;28;20717;-78
2021/09/04 07:09:11;;;;;;;10.90;6.20;;;;;20.10;101843.00;;;;5009467;28;20197;-78
2021/09/04 07:11:40;;;;;;;8.15;5.78;;;;;20.10;101851.00;;;;5008086;28;20216;-79
2021/09/04 07:14:07;;;;;;;8.60;5.45;;;;;20.10;101840.00;;;;5007918;28;20205;-77
2021/09/04 07:16:34;;;;;;;9.40;6.00;;;;;20.20;101839.00;;;;5007570;28;20231;-77
2021/09/04 07:19:01;;;;;;;10.65;5.95;;;;;20.20;101840.00;;;;5007545;28;20233;-76
2021/09/04 07:21:29;;;;;;;9.68;5.70;;;;;20.20;101842.00;;;;5007960;28;20217;-76
2021/09/04 07:23:56;;;;;;;9.77;6.70;;;;;20.20;101840.00;;;;5009240;28;20201;-77
2021/09/04 07:26:23;;;;;;;10.70;6.07;;;;;20.20;101843.00;;;;5007669;28;20232;-77
2021/09/04 07:28:52;;;;;;;10.63;6.32;;;;;20.20;101838.00;;;;5007299;28;20609;-79
2021/09/04 07:31:19;;;;;;;9.48;6.75;;;;;20.30;101835.00;;;;5008456;28;20208;-78
2021/09/04 07:33:46;;;;;;;12.15;6.75;;;;;20.30;101845.00;;;;5009369;28;20216;-78
2021/09/04 07:36:14;;;;;;;7.88;5.72;;;;;20.30;101843.00;;;;5008324;28;20224;-80
2021/09/04 07:38:41;;;;;;;9.98;6.40;;;;;20.30;101838.00;;;;5008674;28;20223;-80
2021/09/04 07:41:08;;;;;;;11.50;6.25;;;;;20.30;101837.00;;;;5009005;28;20231;-79
2021/09/04 07:43:35;;;;;;;7.78;5.68;;;;;20.40;101834.00;;;;5006907;28;20205;-78
2021/09/04 07:46:04;;;;;;;10.63;6.22;;;;;20.40;101847.00;;;;5009106;28;20251;-77
2021/09/04 07:48:31;;;;;;;7.35;5.32;;;;;20.40;101838.00;;;;5007659;28;20205;-78
2021/09/04 07:50:58;;;;;;;6.70;5.50;;;;;20.40;101841.00;;;;5005798;28;20204;-78
2021/09/04 07:53:26;;;;;;;6.13;4.57;;;;;20.50;101844.00;;;;5008682;28;20192;-79
2021/09/04 07:55:53;;;;;;;8.48;5.60;;;;;20.50;101847.00;;;;5007567;28;20201;-80
2021/09/04 07:58:20;;;;;;;9.18;5.30;;;;;20.50;101851.00;;;;5008428;28;20209;-79
2021/09/04 08:00:48;;;;;;;7.72;5.20;;;;;20.60;101850.00;;;;5008329;28;20204;-80
2021/09/04 08:03:16;;;;;;;8.15;5.15;;;;;20.60;101846.00;;;;5008712;28;20197;-80
2021/09/04 08:05:43;;;;;;;8.93;5.35;;;;;20.60;101848.00;;;;5008620;28;20244;-78
2021/09/04 08:08:11;;;;;;;6.47;4.78;;;;;20.70;101848.00;;;;5008580;28;20197;-79
2021/09/04 08:10:42;;;;;;;7.43;5.05;;;;;20.70;101851.00;;;;5006370;28;20342;-80
2021/09/04 08:13:10;;;;;;;9.80;5.47;;;;;20.70;101840.00;;;;5008897;28;20206;-79
2021/09/04 08:15:37;;;;;;;11.15;6.10;;;;;20.70;101841.00;;;;5008504;28;20251;-79
2021/09/04 08:18:05;;;;;;;9.40;4.93;;;;;20.80;101842.00;;;;5007907;28;20224;-79
2021/09/04 08:20:33;;;;;;;7.85;4.97;;;;;20.80;101842.00;;;;5007641;28;20236;-80
2021/09/04 08:23:06;;;;;;;10.05;5.85;;;;;20.90;101839.00;;;;5008345;28;20228;-79
2021/09/04 08:25:34;;;;;;;8.88;5.65;;;;;20.90;101835.00;;;;5008187;28;20233;-80
2021/09/04 08:28:01;;;;;;;9.70;5.95;;;;;21.00;101843.00;;;;5008781;28;20270;-79
2021/09/04 08:30:28;;;;;;;8.95;5.25;;;;;21.00;101843.00;;;;5008446;28;20572;-79
2021/09/04 08:32:56;;;;;;;6.43;4.78;;;;;21.10;101853.00;;;;5008012;28;20197;-79
2021/09/04 08:35:23;;;;;;;10.15;6.40;;;;;21.10;101850.00;;;;5008743;28;20200;-79
2021/09/04 08:37:53;;;;;;;8.63;4.90;;;;;21.10;101853.00;;;;5007450;28;20197;-79
2021/09/04 08:40:21;;;;;;;9.60;5.68;;;;;21.20;101861.00;;;;4990136;28;20202;-79
2021/09/04 08:42:49;;;;;;;7.93;5.68;;;;;21.20;101860.00;;;;5002381;28;20212;-79
2021/09/04 08:45:16;;;;;;;6.03;4.75;;;;;21.30;101861.00;;;;5003019;28;20201;-79
2021/09/04 08:47:45;;;;;;;7.85;5.82;;;;;21.30;101856.00;;;;5008633;28;20201;-79
2021/09/04 08:50:13;;;;;;;8.57;5.15;;;;;21.40;101854.00;;;;5008475;28;20204;-79
2021/09/04 08:52:41;;;;;;;9.13;5.55;;;;;21.50;101853.00;;;;5007712;28;20201;-79
2021/09/04 08:55:10;;;;;;;7.22;4.93;;;;;21.50;101861.00;;;;5007796;28;20217;-79
2021/09/04 08:57:37;;;;;;;7.75;5.55;;;;;21.70;101865.00;;;;5008225;28;20657;-79
2021/09/04 09:00:06;;;;;;;7.57;4.80;;;;;21.70;101873.00;;;;5008441;28;20693;-79
2021/09/04 09:02:33;;;;;;;9.10;5.22;;;;;21.80;101870.00;;;;5007934;28;20193;-79
2021/09/04 09:05:03;;;;;;;7.65;4.93;;;;;21.90;101865.00;;;;5008739;28;20193;-79
2021/09/04 09:07:41;;;;;;;8.82;5.32;;;;;21.90;101872.00;;;;5008042;28;20225;-79
2021/09/04 09:10:29;;;;;;;8.25;4.88;;;;;22.00;101878.00;;;;5007230;28;20215;-79
2021/09/04 09:12:56;;;;;;;9.98;5.57;;;;;22.20;101881.00;;;;4998585;28;20851;-79
2021/09/04 09:15:25;;;;;;;7.03;5.03;;;;;22.20;101878.00;;;;5008141;28;20204;-79
2021/09/04 09:18:02;;;;;;;9.02;5.55;;;;;22.20;101871.00;;;;5008389;28;20594;-79
2021/09/04 09:20:30;;;;;;;9.05;5.32;;;;;22.30;101874.00;;;;5007193;28;20566;-78
2021/09/04 09:23:06;;;;;;;7.05;5.10;;;;;22.30;101879.00;;;;5008152;28;20217;-79
2021/09/04 09:25:34;;;;;;;8.10;5.43;;;;;22.40;101880.00;;;;5007462;28;20225;-79
2021/09/04 09:28:04;;;;;;;6.68;5.32;;;;;22.50;101879.00;;;;5007896;28;20288;-79
2021/09/04 09:30:33;;;;;;;8.43;5.50;;;;;22.50;101876.00;;;;5008392;28;20555;-77
2021/09/04 09:33:00;;;;;;;6.60;4.93;;;;;22.70;101873.00;;;;5012157;28;20208;-78
2021/09/04 09:35:32;;;;;;;9.30;5.63;;;;;22.80;101870.00;;;;5010794;28;20209;-77
2021/09/04 09:38:01;;;;;;;6.93;5.07;;;;;23.00;101862.00;;;;5010375;28;20211;-78
2021/09/04 09:40:29;;;;;;;8.27;5.07;;;;;23.20;101860.00;;;;5010631;28;20208;-77
2021/09/04 09:42:57;;;;;;;7.38;5.15;;;;;23.50;101863.00;;;;5010480;28;20597;-78
2021/09/04 09:45:40;;;;;;;11.45;6.20;;;;;23.60;101856.00;;;;5010550;28;20232;-80
2021/09/04 09:48:07;;;;;;;7.55;5.75;;;;;23.80;101869.00;;;;5010530;28;20204;-79
2021/09/04 09:50:36;;;;;;;8.65;4.90;;;;;23.90;101856.00;;;;5009932;28;20272;-79
2021/09/04 09:53:04;;;;;;;8.05;5.97;;;;;24.10;101870.00;;;;5010119;28;20236;-79
2021/09/04 09:55:31;;;;;;;7.90;5.65;;;;;24.20;101860.00;;;;5002534;28;20448;-79
2021/09/04 09:58:01;;;;;;;8.73;5.32;;;;;24.20;101853.00;;;;5009913;28;20201;-79
2021/09/04 10:00:29;;;;;;;8.18;5.40;;;;;24.20;101861.00;;;;5004878;28;20565;-79
2021/09/04 10:02:59;;;;;;;8.13;5.28;;;;;24.30;101863.00;;;;5000391;28;20198;-79
2021/09/04 10:05:28;;;;;;;9.27;5.82;;;;;24.30;101869.00;;;;4999716;28;20721;-77
2021/09/04 10:07:57;;;;;;;7.97;5.60;;;;;24.40;101855.00;;;;5002938;28;20233;-77
2021/09/04 10:10:28;;;;;;;9.20;5.72;;;;;24.50;101857.00;;;;5007792;28;20686;-80
2021/09/04 10:12:56;;;;;;;7.82;5.63;;;;;24.50;101851.00;;;;5009732;28;20557;-77
2021/09/04 10:15:27;;;;;;;10.88;5.78;;;;;24.60;101848.00;;;;4995706;28;20201;-79
2021/09/04 10:17:57;;;;;;;9.30;5.80;;;;;24.70;101840.00;;;;5000467;28;20506;-77
2021/09/04 10:20:26;;;;;;;8.52;5.75;;;;;24.80;101840.00;;;;5010542;28;20208;-77
2021/09/04 10:22:57;;;;;;;12.48;6.03;;;;;24.90;101840.00;;;;5009367;28;20221;-77
2021/09/04 10:25:25;;;;;;;10.05;6.30;;;;;25.10;101849.00;;;;5009904;28;20751;-77
2021/09/04 10:27:57;;;;;;;7.22;5.40;;;;;25.20;101850.00;;;;5009605;28;20710;-78
2021/09/04 10:30:28;;;;;;;7.20;5.20;;;;;25.30;101850.00;;;;5009472;28;20659;-78
2021/09/04 10:33:01;;;;;;;6.70;4.95;;;;;25.40;101854.00;;;;5009622;28;20205;-77
2021/09/04 10:35:52;;;;;;;10.65;5.55;;;;;25.50;101851.00;;;;5008597;28;20666;-77
2021/09/04 10:38:33;;;;;;;7.22;4.82;;;;;25.60;101849.00;;;;5009371;28;20209;-78
2021/09/04 10:41:24;;;;;;;7.90;5.65;;;;;25.50;101854.00;;;;5010279;28;20211;-77
2021/09/04 10:43:55;;;;;;;8.30;5.50;;;;;25.60;101838.00;;;;5008401;28;20208;-77
2021/09/04 10:46:25;;;;;;;9.15;5.15;;;;;25.70;101843.00;;;;5010174;28;20602;-77
2021/09/04 10:49:00;;;;;;;8.52;5.70;;;;;25.60;101831.00;;;;5009688;28;20685;-78
2021/09/04 10:51:47;;;;;;;7.30;5.07;;;;;25.70;101836.00;;;;5008994;28;20211;-78
2021/09/04 10:54:39;;;;;;;7.47;6.00;;;;;25.70;101836.00;;;;5009798;28;20204;-79
2021/09/04 10:57:17;;;;;;;7.85;5.75;;;;;25.80;101845.00;;;;5010390;28;20236;-78
2021/09/04 11:00:05;;;;;;;9.90;5.18;;;;;25.80;101839.00;;;;5009915;28;20201;-78
2021/09/04 11:02:42;;;;;;;9.10;6.03;;;;;25.90;101827.00;;;;4990290;28;20202;-77
2021/09/04 11:05:42;;;;;;;8.18;5.78;;;;;26.00;101830.00;;;;5009304;28;20578;-78
2021/09/04 11:08:10;;;;;;;6.53;5.05;;;;;26.20;101830.00;;;;5009685;28;20225;-78
2021/09/04 11:10:39;;;;;;;7.72;5.50;;;;;26.20;101824.00;;;;5009082;28;20201;-77
2021/09/04 11:13:22;;;;;;;9.07;6.13;;;;;26.30;101835.00;;;;5008861;28;20212;-80
2021/09/04 11:15:50;;;;;;;9.93;6.05;;;;;26.30;101832.00;;;;5005850;28;20201;-80
2021/09/04 11:18:21;;;;;;;10.20;6.07;;;;;26.30;101820.00;;;;5008757;28;20233;-79
2021/09/04 11:20:50;;;;;;;7.53;5.55;;;;;26.40;101819.00;;;;5008257;28;20200;-78
2021/09/04 11:23:25;;;;;;;7.50;5.60;;;;;26.40;101816.00;;;;5008638;28;20660;-77
2021/09/04 11:25:52;;;;;;;9.07;4.88;;;;;26.50;101822.00;;;;5008730;28;20629;-77
2021/09/04 11:28:30;;;;;;;10.73;5.80;;;;;26.50;101827.00;;;;5006950;28;20536;-78
2021/09/04 11:30:58;;;;;;;8.95;6.03;;;;;26.60;101817.00;;;;5008247;28;20258;-80
2021/09/04 11:33:27;;;;;;;7.07;5.10;;;;;26.70;101821.00;;;;5007005;28;20201;-79
2021/09/04 11:35:55;;;;;;;5.47;4.70;;;;;26.70;101817.00;;;;5007703;28;20678;-78
2021/09/04 11:38:22;;;;;;;6.60;4.95;;;;;26.70;101814.00;;;;5008212;28;20193;-77
2021/09/04 11:40:51;;;;;;;6.20;4.60;;;;;26.80;101816.00;;;;5008578;28;20618;-77
2021/09/04 11:43:19;;;;;;;7.88;5.30;;;;;26.80;101811.00;;;;5006910;28;20303;-78
2021/09/04 11:45:46;;;;;;;5.93;5.20;;;;;26.90;101802.00;;;;5008209;28;20737;-78
2021/09/04 11:48:14;;;;;;;8.68;6.15;;;;;26.90;101810.00;;;;5008542;28;20608;-77
2021/09/04 11:50:43;;;;;;;6.53;4.97;;;;;27.00;101802.00;;;;5008404;28;20212;-77
2021/09/04 11:53:12;;;;;;;9.95;5.70;;;;;27.00;101806.00;;;;5007884;28;20200;-77
2021/09/04 11:55:40;;;;;;;6.60;5.15;;;;;27.00;101806.00;;;;5009018;28;20217;-77
2021/09/04 11:58:12;;;;;;;7.38;4.78;;;;;26.90;101805.00;;;;5010551;28;20204;-75
2021/09/04 12:00:41;;;;;;;6.53;4.47;;;;;26.90;101802.00;;;;5004507;28;20205;-78
2021/09/04 12:03:09;;;;;;;8.00;5.68;;;;;26.90;101799.00;;;;5007123;28;20205;-77
2021/09/04 12:05:38;;;;;;;6.60;4.75;;;;;26.90;101803.00;;;;5007975;28;20204;-78
2021/09/04 12:08:08;;;;;;;6.63;4.50;;;;;26.90;101796.00;;;;5007985;28;20304;-78
2021/09/04 12:10:37;;;;;;;8.57;5.43;;;;;27.00;101795.00;;;;5007970;28;20197;-78
2021/09/04 12:13:06;;;;;;;7.05;5.20;;;;;26.90;101797.00;;;;5007694;28;20662;-79